sensor_id;sensor_type;location;lat;lon;timestamp;pressure;altitude;pressure_sealevel;temperature;humidity
73267;BME280;61495;53.400;7.608;2023-11-21T00:01:51;100898.94;;;8.68;100.00
73267;BME280;61495;53.400;7.608;2023-11-21T00:04:17;100899.75;;;8.69;100.00
73267;BME280;61495;53.400;7.608;2023-11-21T00:06:42;100896.47;;;8.67;100.00
73267;BME280;61495;53.400;7.608;2023-11-21T00:09:07;100903.44;;;8.68;100.00
73267;BME280;61495;53.400;7.608;2023-11-21T00:11:33;100898.09;;;8.68;100.00
73267;BME280;61495;53.400;7.608;2023-11-21T00:13:59;100907.16;;;8.67;100.00
73267;BME280;61495;53.400;7.608;2023-11-21T00:16:24;100899.13;;;8.67;100.00
73267;BME280;61495;53.400;7.608;2023-11-21T00:18:50;100905.47;;;8.66;100.00
73267;BME280;61495;53.400;7.608;2023-11-21T00:21:16;100912.50;;;8.67;100.00
73267;BME280;61495;53.400;7.608;2023-11-21T00:23:42;100907.16;;;8.67;100.00
73267;BME280;61495;53.400;7.608;2023-11-21T00:26:07;100915.16;;;8.67;100.00
73267;BME280;61495;53.400;7.608;2023-11-21T00:28:32;100910.81;;;8.66;100.00
73267;BME280;61495;53.400;7.608;2023-11-21T00:30:58;100911.84;;;8.65;100.00
73267;BME280;61495;53.400;7.608;2023-11-21T00:33:23;100918.84;;;8.66;100.00
73267;BME280;61495;53.400;7.608;2023-11-21T00:35:50;100910.81;;;8.66;100.00
73267;BME280;61495;53.400;7.608;2023-11-21T00:38:15;100911.22;;;8.63;100.00
73267;BME280;61495;53.400;7.608;2023-11-21T00:40:43;100919.00;;;8.64;100.00
73267;BME280;61495;53.400;7.608;2023-11-21T00:43:08;100912.88;;;8.64;100.00
73267;BME280;61495;53.400;7.608;2023-11-21T00:45:34;100914.50;;;8.65;100.00
73267;BME280;61495;53.400;7.608;2023-11-21T00:48:00;100917.38;;;8.63;100.00
73267;BME280;61495;53.400;7.608;2023-11-21T00:50:25;100920.06;;;8.63;100.00
73267;BME280;61495;53.400;7.608;2023-11-21T00:52:51;100923.56;;;8.64;100.00
73267;BME280;61495;53.400;7.608;2023-11-21T00:55:16;100928.91;;;8.64;100.00
73267;BME280;61495;53.400;7.608;2023-11-21T00:57:43;100936.91;;;8.64;100.00
73267;BME280;61495;53.400;7.608;2023-11-21T01:00:08;100943.25;;;8.63;100.00
73267;BME280;61495;53.400;7.608;2023-11-21T01:02:45;100939.56;;;8.64;100.00
73267;BME280;61495;53.400;7.608;2023-11-21T01:05:10;100945.72;;;8.64;100.00
73267;BME280;61495;53.400;7.608;2023-11-21T01:07:36;100952.94;;;8.64;100.00
73267;BME280;61495;53.400;7.608;2023-11-21T01:10:03;100959.91;;;8.65;100.00
73267;BME280;61495;53.400;7.608;2023-11-21T01:12:30;100967.91;;;8.65;100.00
73267;BME280;61495;53.400;7.608;2023-11-21T01:14:56;100968.75;;;8.65;100.00
73267;BME280;61495;53.400;7.608;2023-11-21T01:17:25;100971.63;;;8.64;100.00
73267;BME280;61495;53.400;7.608;2023-11-21T01:19:50;100978.59;;;8.65;100.00
73267;BME280;61495;53.400;7.608;2023-11-21T01:22:16;100974.91;;;8.66;100.00
73267;BME280;61495;53.400;7.608;2023-11-21T01:24:41;100978.59;;;8.65;100.00
73267;BME280;61495;53.400;7.608;2023-11-21T01:27:07;100990.94;;;8.66;100.00
73267;BME280;61495;53.400;7.608;2023-11-21T01:29:32;100990.94;;;8.66;100.00
73267;BME280;61495;53.400;7.608;2023-11-21T01:31:57;100995.44;;;8.65;100.00
73267;BME280;61495;53.400;7.608;2023-11-21T01:34:23;101001.63;;;8.66;100.00
73267;BME280;61495;53.400;7.608;2023-11-21T01:36:48;101013.97;;;8.67;100.00
73267;BME280;61495;53.400;7.608;2023-11-21T01:39:15;101005.97;;;8.67;100.00
73267;BME280;61495;53.400;7.608;2023-11-21T01:41:42;101003.28;;;8.67;100.00
73267;BME280;61495;53.400;7.608;2023-11-21T01:44:09;101018.50;;;8.66;100.00
73267;BME280;61495;53.400;7.608;2023-11-21T01:46:35;101009.44;;;8.67;100.00
73267;BME280;61495;53.400;7.608;2023-11-21T01:49:00;101025.47;;;8.67;100.00
73267;BME280;61495;53.400;7.608;2023-11-21T01:51:26;101023.00;;;8.66;100.00
73267;BME280;61495;53.400;7.608;2023-11-21T01:53:51;101039.41;;;8.63;100.00
73267;BME280;61495;53.400;7.608;2023-11-21T01:56:18;101036.91;;;8.61;100.00
73267;BME280;61495;53.400;7.608;2023-11-21T01:58:43;101049.25;;;8.62;100.00
73267;BME280;61495;53.400;7.608;2023-11-21T02:01:09;101049.25;;;8.62;100.00
73267;BME280;61495;53.400;7.608;2023-11-21T02:03:35;101056.44;;;8.62;100.00
73267;BME280;61495;53.400;7.608;2023-11-21T02:06:01;101056.44;;;8.62;100.00
73267;BME280;61495;53.400;7.608;2023-11-21T02:08:26;101044.75;;;8.63;100.00
73267;BME280;61495;53.400;7.608;2023-11-21T02:10:52;101046.41;;;8.64;100.00
73267;BME280;61495;53.400;7.608;2023-11-21T02:13:17;101046.41;;;8.64;100.00
73267;BME280;61495;53.400;7.608;2023-11-21T02:15:43;101059.56;;;8.65;100.00
73267;BME280;61495;53.400;7.608;2023-11-21T02:18:08;101063.88;;;8.66;100.00
73267;BME280;61495;53.400;7.608;2023-11-21T02:20:36;101065.72;;;8.66;100.00
73267;BME280;61495;53.400;7.608;2023-11-21T02:23:04;101066.56;;;8.66;100.00
73267;BME280;61495;53.400;7.608;2023-11-21T02:25:31;101063.69;;;8.68;100.00
73267;BME280;61495;53.400;7.608;2023-11-21T02:28:02;101066.34;;;8.68;100.00
73267;BME280;61495;53.400;7.608;2023-11-21T02:30:28;101056.50;;;8.68;100.00
73267;BME280;61495;53.400;7.608;2023-11-21T02:32:54;101065.34;;;8.69;100.00
73267;BME280;61495;53.400;7.608;2023-11-21T02:35:20;101069.84;;;8.68;100.00
73267;BME280;61495;53.400;7.608;2023-11-21T02:37:51;101072.34;;;8.70;100.00
73267;BME280;61495;53.400;7.608;2023-11-21T02:40:17;101077.69;;;8.70;100.00
73267;BME280;61495;53.400;7.608;2023-11-21T02:42:52;101077.69;;;8.70;100.00
73267;BME280;61495;53.400;7.608;2023-11-21T02:45:21;101073.38;;;8.69;100.00
73267;BME280;61495;53.400;7.608;2023-11-21T02:47:47;101081.38;;;8.69;100.00
73267;BME280;61495;53.400;7.608;2023-11-21T02:50:14;101081.53;;;8.67;100.00
73267;BME280;61495;53.400;7.608;2023-11-21T02:52:40;101083.41;;;8.67;100.00
73267;BME280;61495;53.400;7.608;2023-11-21T02:55:05;101084.03;;;8.69;100.00
73267;BME280;61495;53.400;7.608;2023-11-21T02:57:32;101092.06;;;8.69;100.00
73267;BME280;61495;53.400;7.608;2023-11-21T02:59:58;101098.22;;;8.69;100.00
73267;BME280;61495;53.400;7.608;2023-11-21T03:02:25;101102.75;;;8.69;100.00
73267;BME280;61495;53.400;7.608;2023-11-21T03:04:50;101110.94;;;8.67;100.00
73267;BME280;61495;53.400;7.608;2023-11-21T03:07:16;101111.75;;;8.68;100.00
73267;BME280;61495;53.400;7.608;2023-11-21T03:09:42;101113.59;;;8.67;100.00
73267;BME280;61495;53.400;7.608;2023-11-21T03:12:09;101119.97;;;8.66;100.00
73267;BME280;61495;53.400;7.608;2023-11-21T03:14:35;101126.31;;;8.65;100.00
73267;BME280;61495;53.400;7.608;2023-11-21T03:17:00;101130.81;;;8.65;100.00
73267;BME280;61495;53.400;7.608;2023-11-21T03:19:25;101130.66;;;8.66;100.00
73267;BME280;61495;53.400;7.608;2023-11-21T03:21:51;101129.81;;;8.66;100.00
73267;BME280;61495;53.400;7.608;2023-11-21T03:24:18;101127.16;;;8.66;100.00
73267;BME280;61495;53.400;7.608;2023-11-21T03:26:45;101136.84;;;8.67;100.00
73267;BME280;61495;53.400;7.608;2023-11-21T03:29:12;101132.50;;;8.66;100.00
73267;BME280;61495;53.400;7.608;2023-11-21T03:31:38;101131.50;;;8.67;100.00
73267;BME280;61495;53.400;7.608;2023-11-21T03:34:03;101131.50;;;8.67;100.00
73267;BME280;61495;53.400;7.608;2023-11-21T03:36:28;101140.50;;;8.66;100.00
73267;BME280;61495;53.400;7.608;2023-11-21T03:38:54;101144.19;;;8.65;100.00
73267;BME280;61495;53.400;7.608;2023-11-21T03:41:20;101137.22;;;8.64;100.00
73267;BME280;61495;53.400;7.608;2023-11-21T03:43:46;101146.22;;;8.63;100.00
73267;BME280;61495;53.400;7.608;2023-11-21T03:46:11;101147.06;;;8.63;100.00
73267;BME280;61495;53.400;7.608;2023-11-21T03:48:37;101156.28;;;8.61;100.00
73267;BME280;61495;53.400;7.608;2023-11-21T03:51:03;101156.28;;;8.61;100.00
73267;BME280;61495;53.400;7.608;2023-11-21T03:53:28;101152.78;;;8.60;100.00
73267;BME280;61495;53.400;7.608;2023-11-21T03:55:54;101160.31;;;8.57;100.00
73267;BME280;61495;53.400;7.608;2023-11-21T03:58:19;101166.50;;;8.57;100.00
73267;BME280;61495;53.400;7.608;2023-11-21T04:00:46;101163.34;;;8.54;100.00
73267;BME280;61495;53.400;7.608;2023-11-21T04:03:12;101173.41;;;8.52;100.00
73267;BME280;61495;53.400;7.608;2023-11-21T04:05:38;101183.41;;;8.50;100.00
73267;BME280;61495;53.400;7.608;2023-11-21T04:08:04;101182.41;;;8.51;100.00
73267;BME280;61495;53.400;7.608;2023-11-21T04:10:29;101180.13;;;8.48;100.00
73267;BME280;61495;53.400;7.608;2023-11-21T04:12:54;101193.66;;;8.46;100.00
73267;BME280;61495;53.400;7.608;2023-11-21T04:15:20;101199.19;;;8.45;100.00
73267;BME280;61495;53.400;7.608;2023-11-21T04:17:45;101193.56;;;8.40;100.00
73267;BME280;61495;53.400;7.608;2023-11-21T04:20:11;101200.91;;;8.37;100.00
73267;BME280;61495;53.400;7.608;2023-11-21T04:22:40;101198.06;;;8.39;100.00
73267;BME280;61495;53.400;7.608;2023-11-21T04:25:08;101214.09;;;8.39;100.00
73267;BME280;61495;53.400;7.608;2023-11-21T04:27:34;101214.94;;;8.40;100.00
73267;BME280;61495;53.400;7.608;2023-11-21T04:30:00;101218.78;;;8.37;100.00
73267;BME280;61495;53.400;7.608;2023-11-21T04:32:25;101221.47;;;8.37;100.00
73267;BME280;61495;53.400;7.608;2023-11-21T04:34:51;101219.78;;;8.36;100.00
73267;BME280;61495;53.400;7.608;2023-11-21T04:37:16;101222.63;;;8.34;100.00
73267;BME280;61495;53.400;7.608;2023-11-21T04:39:41;101228.34;;;8.31;100.00
73267;BME280;61495;53.400;7.608;2023-11-21T04:42:07;101240.69;;;8.32;100.00
73267;BME280;61495;53.400;7.608;2023-11-21T04:44:32;101242.34;;;8.33;100.00
73267;BME280;61495;53.400;7.608;2023-11-21T04:46:58;101248.88;;;8.31;100.00
73267;BME280;61495;53.400;7.608;2023-11-21T04:49:23;101247.38;;;8.28;100.00
73267;BME280;61495;53.400;7.608;2023-11-21T04:51:48;101252.88;;;8.27;100.00
73267;BME280;61495;53.400;7.608;2023-11-21T04:54:14;101250.22;;;8.27;100.00
73267;BME280;61495;53.400;7.608;2023-11-21T04:56:39;101259.41;;;8.24;100.00
73267;BME280;61495;53.400;7.608;2023-11-21T04:59:05;101265.97;;;8.22;100.00
73267;BME280;61495;53.400;7.608;2023-11-21T05:01:31;101269.47;;;8.22;100.00
73267;BME280;61495;53.400;7.608;2023-11-21T05:03:57;101272.13;;;8.22;100.00
73267;BME280;61495;53.400;7.608;2023-11-21T05:06:22;101281.13;;;8.21;100.00
73267;BME280;61495;53.400;7.608;2023-11-21T05:08:49;101282.13;;;8.20;100.00
73267;BME280;61495;53.400;7.608;2023-11-21T05:11:24;101290.50;;;8.17;100.00
73267;BME280;61495;53.400;7.608;2023-11-21T05:13:49;101304.03;;;8.16;100.00
73267;BME280;61495;53.400;7.608;2023-11-21T05:16:16;101315.91;;;8.13;100.00
73267;BME280;61495;53.400;7.608;2023-11-21T05:18:41;101318.75;;;8.12;100.00
73267;BME280;61495;53.400;7.608;2023-11-21T05:21:07;101323.25;;;8.11;100.00
73267;BME280;61495;53.400;7.608;2023-11-21T05:23:33;101322.59;;;8.09;100.00
73267;BME280;61495;53.400;7.608;2023-11-21T05:25:59;101320.78;;;8.10;100.00
73267;BME280;61495;53.400;7.608;2023-11-21T05:28:24;101325.91;;;8.11;100.00
73267;BME280;61495;53.400;7.608;2023-11-21T05:30:50;101322.41;;;8.11;100.00
73267;BME280;61495;53.400;7.608;2023-11-21T05:33:16;101326.09;;;8.10;100.00
73267;BME280;61495;53.400;7.608;2023-11-21T05:35:41;101322.31;;;8.04;100.00
73267;BME280;61495;53.400;7.608;2023-11-21T05:38:06;101334.63;;;8.05;100.00
73267;BME280;61495;53.400;7.608;2023-11-21T05:40:32;101338.69;;;8.01;100.00
73267;BME280;61495;53.400;7.608;2023-11-21T05:42:58;101332.66;;;7.99;100.00
73267;BME280;61495;53.400;7.608;2023-11-21T05:45:24;101344.72;;;7.95;100.00
73267;BME280;61495;53.400;7.608;2023-11-21T05:47:49;101350.91;;;7.96;100.00
73267;BME280;61495;53.400;7.608;2023-11-21T05:50:16;101358.72;;;7.97;100.00
73267;BME280;61495;53.400;7.608;2023-11-21T05:52:46;101373.03;;;7.96;100.00
73267;BME280;61495;53.400;7.608;2023-11-21T05:55:12;101377.56;;;7.96;100.00
73267;BME280;61495;53.400;7.608;2023-11-21T05:57:39;101390.06;;;7.95;100.00
73267;BME280;61495;53.400;7.608;2023-11-21T06:00:07;101383.63;;;7.90;100.00
73267;BME280;61495;53.400;7.608;2023-11-21T06:02:49;101388.47;;;7.86;100.00
73267;BME280;61495;53.400;7.608;2023-11-21T06:05:22;101402.63;;;7.87;100.00
73267;BME280;61495;53.400;7.608;2023-11-21T06:07:55;101403.97;;;7.82;100.00
73267;BME280;61495;53.400;7.608;2023-11-21T06:10:23;101401.47;;;7.81;100.00
73267;BME280;61495;53.400;7.608;2023-11-21T06:12:49;101404.34;;;7.79;100.00
73267;BME280;61495;53.400;7.608;2023-11-21T06:15:15;101414.81;;;7.81;100.00
73267;BME280;61495;53.400;7.608;2023-11-21T06:17:42;101408.81;;;7.79;100.00
73267;BME280;61495;53.400;7.608;2023-11-21T06:20:09;101422.69;;;7.74;100.00
73267;BME280;61495;53.400;7.608;2023-11-21T06:22:39;101426.22;;;7.75;100.00
73267;BME280;61495;53.400;7.608;2023-11-21T06:25:05;101429.22;;;7.72;100.00
73267;BME280;61495;53.400;7.608;2023-11-21T06:27:32;101431.69;;;7.73;100.00
73267;BME280;61495;53.400;7.608;2023-11-21T06:29:58;101441.03;;;7.69;100.00
73267;BME280;61495;53.400;7.608;2023-11-21T06:32:23;101444.53;;;7.70;100.00
73267;BME280;61495;53.400;7.608;2023-11-21T06:34:49;101444.25;;;7.65;100.00
73267;BME280;61495;53.400;7.608;2023-11-21T06:37:15;101451.25;;;7.66;100.00
73267;BME280;61495;53.400;7.608;2023-11-21T06:39:40;101451.59;;;7.63;100.00
73267;BME280;61495;53.400;7.608;2023-11-21T06:42:06;101456.91;;;7.63;100.00
73267;BME280;61495;53.400;7.608;2023-11-21T06:44:32;101462.59;;;7.60;100.00
73267;BME280;61495;53.400;7.608;2023-11-21T06:46:58;101471.59;;;7.59;100.00
73267;BME280;61495;53.400;7.608;2023-11-21T06:49:24;101462.59;;;7.60;100.00
73267;BME280;61495;53.400;7.608;2023-11-21T06:51:49;101468.59;;;7.62;100.00
73267;BME280;61495;53.400;7.608;2023-11-21T06:54:15;101478.59;;;7.60;100.00
73267;BME280;61495;53.400;7.608;2023-11-21T06:56:40;101483.25;;;7.58;100.00
73267;BME280;61495;53.400;7.608;2023-11-21T06:59:06;101487.09;;;7.55;100.00
73267;BME280;61495;53.400;7.608;2023-11-21T07:01:31;101496.91;;;7.55;100.00
73267;BME280;61495;53.400;7.608;2023-11-21T07:04:04;101487.94;;;7.56;100.00
73267;BME280;61495;53.400;7.608;2023-11-21T07:06:30;101495.09;;;7.55;100.00
73267;BME280;61495;53.400;7.608;2023-11-21T07:08:55;101496.91;;;7.55;100.00
73267;BME280;61495;53.400;7.608;2023-11-21T07:11:20;101511.28;;;7.54;100.00
73267;BME280;61495;53.400;7.608;2023-11-21T07:13:46;101513.09;;;7.53;100.00
73267;BME280;61495;53.400;7.608;2023-11-21T07:16:11;101514.94;;;7.53;100.00
73267;BME280;61495;53.400;7.608;2023-11-21T07:18:37;101522.28;;;7.51;100.00
73267;BME280;61495;53.400;7.608;2023-11-21T07:21:03;101520.59;;;7.50;100.00
73267;BME280;61495;53.400;7.608;2023-11-21T07:23:28;101529.59;;;7.49;100.00
73267;BME280;61495;53.400;7.608;2023-11-21T07:25:54;101528.94;;;7.47;100.00
73267;BME280;61495;53.400;7.608;2023-11-21T07:28:19;101536.09;;;7.46;100.00
73267;BME280;61495;53.400;7.608;2023-11-21T07:30:45;101548.59;;;7.46;100.00
73267;BME280;61495;53.400;7.608;2023-11-21T07:33:10;101549.94;;;7.42;100.00
73267;BME280;61495;53.400;7.608;2023-11-21T07:35:36;101558.94;;;7.41;100.00
73267;BME280;61495;53.400;7.608;2023-11-21T07:38:01;101560.94;;;7.39;100.00
73267;BME280;61495;53.400;7.608;2023-11-21T07:40:27;101578.91;;;7.37;100.00
73267;BME280;61495;53.400;7.608;2023-11-21T07:42:52;101587.94;;;7.36;100.00
73267;BME280;61495;53.400;7.608;2023-11-21T07:45:18;101590.75;;;7.34;100.00
73267;BME280;61495;53.400;7.608;2023-11-21T07:47:43;101592.44;;;7.35;100.00
73267;BME280;61495;53.400;7.608;2023-11-21T07:50:09;101592.59;;;7.34;100.00
73267;BME280;61495;53.400;7.608;2023-11-21T07:52:34;101586.59;;;7.32;100.00
73267;BME280;61495;53.400;7.608;2023-11-21T07:55:00;101592.75;;;7.32;100.00
73267;BME280;61495;53.400;7.608;2023-11-21T07:57:25;101585.75;;;7.31;100.00
73267;BME280;61495;53.400;7.608;2023-11-21T07:59:51;101588.59;;;7.30;100.00
73267;BME280;61495;53.400;7.608;2023-11-21T08:02:19;101601.94;;;7.30;100.00
73267;BME280;61495;53.400;7.608;2023-11-21T08:04:44;101620.59;;;7.30;100.00
73267;BME280;61495;53.400;7.608;2023-11-21T08:07:09;101618.06;;;7.28;100.00
73267;BME280;61495;53.400;7.608;2023-11-21T08:09:36;101627.25;;;7.25;100.00
73267;BME280;61495;53.400;7.608;2023-11-21T08:12:01;101630.91;;;7.24;100.00
73267;BME280;61495;53.400;7.608;2023-11-21T08:14:27;101637.25;;;7.23;100.00
73267;BME280;61495;53.400;7.608;2023-11-21T08:16:53;101648.75;;;7.24;100.00
73267;BME280;61495;53.400;7.608;2023-11-21T08:19:22;101654.88;;;7.24;100.00
73267;BME280;61495;53.400;7.608;2023-11-21T08:21:50;101662.72;;;7.26;100.00
73267;BME280;61495;53.400;7.608;2023-11-21T08:24:15;101663.56;;;7.26;100.00
73267;BME280;61495;53.400;7.608;2023-11-21T08:26:41;101665.72;;;7.23;100.00
73267;BME280;61495;53.400;7.608;2023-11-21T08:29:06;101665.91;;;7.21;100.00
73267;BME280;61495;53.400;7.608;2023-11-21T08:31:35;101668.56;;;7.21;100.00
73267;BME280;61495;53.400;7.608;2023-11-21T08:34:01;101663.88;;;7.23;100.00
73267;BME280;61495;53.400;7.608;2023-11-21T08:36:28;101668.91;;;7.26;100.00
73267;BME280;61495;53.400;7.608;2023-11-21T08:38:53;101684.88;;;7.26;100.00
73267;BME280;61495;53.400;7.608;2023-11-21T08:41:19;101677.88;;;7.25;100.00
73267;BME280;61495;53.400;7.608;2023-11-21T08:43:50;101685.22;;;7.23;100.00
73267;BME280;61495;53.400;7.608;2023-11-21T08:46:16;101691.38;;;7.24;100.00
73267;BME280;61495;53.400;7.608;2023-11-21T08:48:43;101694.19;;;7.22;100.00
73267;BME280;61495;53.400;7.608;2023-11-21T08:51:10;101705.69;;;7.23;100.00
73267;BME280;61495;53.400;7.608;2023-11-21T08:53:36;101710.03;;;7.24;100.00
73267;BME280;61495;53.400;7.608;2023-11-21T08:56:03;101713.03;;;7.21;100.00
73267;BME280;61495;53.400;7.608;2023-11-21T08:58:34;101711.88;;;7.23;100.00
73267;BME280;61495;53.400;7.608;2023-11-21T09:01:02;101716.34;;;7.23;100.00
73267;BME280;61495;53.400;7.608;2023-11-21T09:03:27;101721.84;;;7.21;100.00
73267;BME280;61495;53.400;7.608;2023-11-21T09:05:53;101731.19;;;7.25;100.00
73267;BME280;61495;53.400;7.608;2023-11-21T09:08:19;101727.84;;;7.23;100.00
73267;BME280;61495;53.400;7.608;2023-11-21T09:10:44;101736.00;;;7.22;100.00
73267;BME280;61495;53.400;7.608;2023-11-21T09:13:12;101744.81;;;7.22;100.00
73267;BME280;61495;53.400;7.608;2023-11-21T09:15:38;101742.16;;;7.22;100.00
73267;BME280;61495;53.400;7.608;2023-11-21T09:18:03;101753.84;;;7.21;100.00
73267;BME280;61495;53.400;7.608;2023-11-21T09:20:30;101764.31;;;7.23;100.00
73267;BME280;61495;53.400;7.608;2023-11-21T09:22:55;101769.84;;;7.21;100.00
73267;BME280;61495;53.400;7.608;2023-11-21T09:25:21;101776.81;;;7.22;100.00
73267;BME280;61495;53.400;7.608;2023-11-21T09:27:47;101775.81;;;7.23;100.00
73267;BME280;61495;53.400;7.608;2023-11-21T09:30:13;101769.13;;;7.19;100.00
73267;BME280;61495;53.400;7.608;2023-11-21T09:32:40;101773.31;;;7.22;100.00
73267;BME280;61495;53.400;7.608;2023-11-21T09:35:06;101778.50;;;7.23;100.00
73267;BME280;61495;53.400;7.608;2023-11-21T09:37:33;101773.16;;;7.23;100.00
73267;BME280;61495;53.400;7.608;2023-11-21T09:39:59;101791.50;;;7.26;100.00
73267;BME280;61495;53.400;7.608;2023-11-21T09:42:36;101791.31;;;7.28;100.00
73267;BME280;61495;53.400;7.608;2023-11-21T09:45:27;101793.31;;;7.26;100.00
73267;BME280;61495;53.400;7.608;2023-11-21T09:47:57;101793.13;;;7.27;100.00
73267;BME280;61495;53.400;7.608;2023-11-21T09:50:23;101796.81;;;7.26;100.00
73267;BME280;61495;53.400;7.608;2023-11-21T09:53:13;101801.81;;;7.30;100.00
73267;BME280;61495;53.400;7.608;2023-11-21T09:55:44;101805.47;;;7.28;100.00
73267;BME280;61495;53.400;7.608;2023-11-21T09:58:10;101810.47;;;7.32;100.00
73267;BME280;61495;53.400;7.608;2023-11-21T10:00:43;101807.16;;;7.30;100.00
73267;BME280;61495;53.400;7.608;2023-11-21T10:03:10;101817.50;;;7.33;100.00
73267;BME280;61495;53.400;7.608;2023-11-21T10:05:36;101813.00;;;7.33;100.00
73267;BME280;61495;53.400;7.608;2023-11-21T10:08:04;101813.81;;;7.34;100.00
73267;BME280;61495;53.400;7.608;2023-11-21T10:10:32;101828.50;;;7.38;100.00
73267;BME280;61495;53.400;7.608;2023-11-21T10:13:01;101836.50;;;7.38;100.00
73267;BME280;61495;53.400;7.608;2023-11-21T10:15:28;101847.16;;;7.38;100.00
73267;BME280;61495;53.400;7.608;2023-11-21T10:17:55;101849.81;;;7.38;100.00
73267;BME280;61495;53.400;7.608;2023-11-21T10:20:24;101846.84;;;7.41;100.00
73267;BME280;61495;53.400;7.608;2023-11-21T10:22:50;101842.34;;;7.41;100.00
73267;BME280;61495;53.400;7.608;2023-11-21T10:25:15;101848.19;;;7.45;100.00
73267;BME280;61495;53.400;7.608;2023-11-21T10:27:42;101854.38;;;7.45;100.00
73267;BME280;61495;53.400;7.608;2023-11-21T10:30:09;101858.53;;;7.48;100.00
73267;BME280;61495;53.400;7.608;2023-11-21T10:32:38;101848.53;;;7.50;100.00
73267;BME280;61495;53.400;7.608;2023-11-21T10:35:03;101851.88;;;7.52;100.00
73267;BME280;61495;53.400;7.608;2023-11-21T10:37:41;101857.19;;;7.52;100.00
73267;BME280;61495;53.400;7.608;2023-11-21T10:40:11;101854.53;;;7.52;100.00
73267;BME280;61495;53.400;7.608;2023-11-21T10:42:40;101854.22;;;7.55;100.00
73267;BME280;61495;53.400;7.608;2023-11-21T10:45:07;101855.03;;;7.55;100.00
73267;BME280;61495;53.400;7.608;2023-11-21T10:47:39;101862.06;;;7.56;100.00
73267;BME280;61495;53.400;7.608;2023-11-21T10:50:05;101865.56;;;7.57;100.00
73267;BME280;61495;53.400;7.608;2023-11-21T10:52:31;101869.88;;;7.58;100.00
73267;BME280;61495;53.400;7.608;2023-11-21T10:54:56;101867.91;;;7.60;100.00
73267;BME280;61495;53.400;7.608;2023-11-21T10:57:24;101889.91;;;7.62;100.00
73267;BME280;61495;53.400;7.608;2023-11-21T10:59:54;101887.25;;;7.62;100.00
73267;BME280;61495;53.400;7.608;2023-11-21T11:02:25;101883.91;;;7.60;100.00
73267;BME280;61495;53.400;7.608;2023-11-21T11:04:54;101883.91;;;7.60;100.00
73267;BME280;61495;53.400;7.608;2023-11-21T11:07:26;101881.25;;;7.60;100.00
73267;BME280;61495;53.400;7.608;2023-11-21T11:09:54;101882.22;;;7.59;100.00
73267;BME280;61495;53.400;7.608;2023-11-21T11:12:20;101873.91;;;7.62;100.00
73267;BME280;61495;53.400;7.608;2023-11-21T11:14:46;101888.59;;;7.66;100.00
73267;BME280;61495;53.400;7.608;2023-11-21T11:17:13;101892.91;;;7.67;100.00
73267;BME280;61495;53.400;7.608;2023-11-21T11:19:39;101888.94;;;7.71;100.00
73267;BME280;61495;53.400;7.608;2023-11-21T11:31:10;101904.97;;;7.79;100.00
73267;BME280;61495;53.400;7.608;2023-11-21T11:33:59;101912.97;;;7.79;100.00
73267;BME280;61495;53.400;7.608;2023-11-21T11:36:39;101899.63;;;7.79;100.00
73267;BME280;61495;53.400;7.608;2023-11-21T11:39:29;101903.78;;;7.81;100.00
73267;BME280;61495;53.400;7.608;2023-11-21T11:41:56;101916.97;;;7.83;100.00
73267;BME280;61495;53.400;7.608;2023-11-21T11:50:07;101935.34;;;7.86;100.00
73267;BME280;61495;53.400;7.608;2023-11-21T11:52:41;101934.63;;;7.84;100.00
73267;BME280;61495;53.400;7.608;2023-11-21T11:55:11;101934.31;;;7.87;100.00
73267;BME280;61495;53.400;7.608;2023-11-21T11:57:38;101945.00;;;7.87;100.00
73267;BME280;61495;53.400;7.608;2023-11-21T12:00:12;101941.66;;;7.85;100.00
73267;BME280;61495;53.400;7.608;2023-11-21T12:02:42;101943.66;;;7.83;100.00
73267;BME280;61495;53.400;7.608;2023-11-21T12:05:16;101942.16;;;7.80;100.00
73267;BME280;61495;53.400;7.608;2023-11-21T12:07:51;101945.97;;;7.78;100.00
73267;BME280;61495;53.400;7.608;2023-11-21T12:10:22;101945.63;;;7.81;100.00
73267;BME280;61495;53.400;7.608;2023-11-21T12:15:19;101951.66;;;7.83;100.00
73267;BME280;61495;53.400;7.608;2023-11-21T12:17:45;101954.34;;;7.83;100.00
73267;BME280;61495;53.400;7.608;2023-11-21T12:20:12;101949.66;;;7.85;100.00
73267;BME280;61495;53.400;7.608;2023-11-21T12:25:09;101966.34;;;7.87;100.00
73267;BME280;61495;53.400;7.608;2023-11-21T12:27:34;101966.66;;;7.84;100.00
73267;BME280;61495;53.400;7.608;2023-11-21T12:30:00;101971.31;;;7.82;100.00
73267;BME280;61495;53.400;7.608;2023-11-21T12:32:26;101966.97;;;7.81;100.00
73267;BME280;61495;53.400;7.608;2023-11-21T12:34:51;101976.47;;;7.75;100.00
73267;BME280;61495;53.400;7.608;2023-11-21T12:37:17;101985.31;;;7.76;100.00
73267;BME280;61495;53.400;7.608;2023-11-21T12:39:43;101988.16;;;7.74;100.00
73267;BME280;61495;53.400;7.608;2023-11-21T12:42:09;101993.63;;;7.73;100.00
73267;BME280;61495;53.400;7.608;2023-11-21T12:44:35;101994.31;;;7.75;100.00
73267;BME280;61495;53.400;7.608;2023-11-21T12:47:01;101992.97;;;7.71;100.00
73267;BME280;61495;53.400;7.608;2023-11-21T12:49:26;102001.09;;;7.69;100.00
73267;BME280;61495;53.400;7.608;2023-11-21T12:51:53;102000.97;;;7.71;100.00
73267;BME280;61495;53.400;7.608;2023-11-21T12:54:19;102000.63;;;7.66;100.00
73267;BME280;61495;53.400;7.608;2023-11-21T12:56:46;102002.59;;;7.64;100.00
73267;BME280;61495;53.400;7.608;2023-11-21T12:59:14;102001.59;;;7.65;100.00
73267;BME280;61495;53.400;7.608;2023-11-21T13:01:42;101998.94;;;7.65;100.00
73267;BME280;61495;53.400;7.608;2023-11-21T13:04:08;102008.63;;;7.66;100.00
73267;BME280;61495;53.400;7.608;2023-11-21T13:06:36;102012.09;;;7.66;100.00
73267;BME280;61495;53.400;7.608;2023-11-21T13:09:09;102007.91;;;7.64;100.00